首页
METAR-TAF:

METAR-TAF

机场 :

Peterborough, 安大略省, 加拿大

纬度: 44-14N, 经度: 078-22W, 海拔: 191米

当前天气观测

该预报发布于13分钟前的14:47 UTC
风速5节,风向,在东转东北东南之间变化
温度 0°C
湿度 93%
气压 1011 hPa
能見度: 6.4公里
散云层高于700英尺
轻雾

METAR: CYPQ 151447Z AUTO 10005KT 060V130 4SM BR SCT007 00/M01 A2984 RMK SLP113

时间: 10:00 (15:00 UTC)

预报

该预报发布于1小时和19分钟前的13:41 UTC
预报有效从15日的 14点(UTC)到 16日的 02点(UTC)
风速5节,风向东转东北
能見度: 10公里
多云层高于700英尺
短暂存在
从 15日的 14点(UTC)到 15日的 16点(UTC)
能見度: 8.0公里
多云层高于3000英尺
轻雾
从 15日的 1600点(UTC)
风速12节,风向,有时为22节阵风
能見度: 10公里
多云层高于3000英尺
短暂存在
从 15日的 16点(UTC)到 15日的 24点(UTC)
多云层高于2000英尺
几率 30%
从 15日的 16点(UTC)到 15日的 18点(UTC)
多云层高于700英尺
从 16日的 0000点(UTC)
风速12节,风向,有时为22节阵风
能見度: 3.2公里
阴天层高于1000英尺
小雪, 雨, 轻雾

TAF: CYPQ 151341Z 1514/1602 07005KT P6SM BKN007 TEMPO 1514/1516 5SM BR BKN030 FM151600 10012G22KT P6SM BKN030 TEMPO 1516/1524 BKN020 PROB30 1516/1518 BKN007 FM160000 10012G22KT 2SM -SNRA BR OVC010 RMK FCST BASED ON AUTO OBS. NXT FCST BY 152000Z

超过4000个机场的气象观测和天气预报(METAR&TAF报告)。

可查询的气象台以黄色和红色小点在地图上表示。

将鼠标移到小点上方,可查看气象台名称。

然后点击查看天气观测和预报。

如需切换地图:点击带黑十字的绿色按钮放大地图;点击带横线的绿色按钮缩小地图;或者点击绿色箭头查看邻近地区的地图。


METAR-TAF: